Aviation Digital Data Service (ADDS)

Output produced by METARs form (2314 UTC 18 August 2019)
found at http://www.aviationweather.gov/metar/data/
 
Forecast for: WBGG (KUCHING (CIV/MIL, MY)
Text: TAF WBGG 182300Z 1900/2000 27006KT 9999 FEW020
Forecast period: 0000 UTC 19 August 2019 to 0000 UTC 20 August 2019
Forecast type: FROM: standard forecast or significant change
Winds: from the W (270 degrees) at 7 MPH (6 knots; 3.1 m/s)
Visibility: 6 or more miles 10+ km)
Ceiling: at least 12,000 feet AGL
Clouds: few clouds at 2000 feet AGL
Weather: no significant weather forecast for this period